Zearing, Iowa
Current Conditions -  °F | °C
As of 12:53 PM on Monday 20 Oct 2014 (Local Time) from KAMW Reporting Station
Clear Clear  
Wind Chill: 68°   Ceiling: Unl
Heat Index: 68°   Visibility: 10mi
Dew Point: 42°   Wind: 14mph
Humidity: 39%   Direction: 320°NW
Pressure: 30.02"   Gusts: NA
Location:  42.16°N, 93.3°W
Report Text: KAMW 201753Z AUTO 32012KT 10SM CLR 20/06 A3002 RMK AO2 SLP161 T02000056 10200 20061 58009 $
Loading
Personal Weather Stations






























Interactive Weather Map
Tropical Storm Tracking
New forecast layout! Learn more

10-Day Weather Forecast

Advertisements
Track Severe Weather on mobile